Terminal Aerodrome Forecast
Issued by NWS Mt. Holly, NJ

Home | Current Version | Previous Version | Text Only | Print | Product List | Glossary On
Versions: 1 2 3 4 5 6 7 8 9 10 11 12 13 14
000
FTUS41 KPHI 011137
TAFACY
TAF
KACY 011137Z 0112/0212 VRB04KT P6SM SCT035 OVC080
     FM011500 15004KT 4SM -SNPL OVC020
     FM011700 VRB04KT 1SM -FZRA BR OVC007
     FM020200 VRB04KT 1SM RA OVC005
     FM020700 23005KT 4SM BR OVC008
     FM020900 27007KT 6SM BR OVC015
     FM021100 31010KT P6SM OVC035=

USA.gov is the U.S. government's official web portal to all federal, state and local government web resources and services.